Time;durP1;ratioP1;P1;durP2;ratioP2;P2;SDS_P1;SDS_P2;PMS_P1;PMS_P2;Temp;Humidity;BMP_temperature;BMP_pressure;BME280_temperature;BME280_humidity;BME280_pressure;Samples;Min_cycle;Max_cycle;Signal;HPM_P1;HPM_P2
2022/03/04 00:02:21;;;;;;;22.90;11.03;;;1.60;99.90;;;;;;5001892;28;20515;-86
2022/03/04 00:04:47;;;;;;;20.80;10.20;;;1.70;99.90;;;;;;5018947;28;20048;-87
2022/03/04 00:07:13;;;;;;;20.90;9.90;;;1.50;99.90;;;;;;5010090;28;20118;-86
2022/03/04 00:09:39;;;;;;;23.17;10.50;;;1.60;99.90;;;;;;4999204;28;20403;-86
2022/03/04 00:12:07;;;;;;;19.23;9.73;;;1.50;99.90;;;;;;4998585;28;20393;-86
2022/03/04 00:14:33;;;;;;;23.67;10.87;;;1.50;99.90;;;;;;4999296;28;20288;-87
2022/03/04 00:16:58;;;;;;;23.03;10.67;;;1.50;99.90;;;;;;4986006;28;20638;-86
2022/03/04 00:19:24;;;;;;;23.03;10.70;;;1.50;99.90;;;;;;5018527;28;20036;-86
2022/03/04 00:21:51;;;;;;;20.37;11.47;;;1.50;99.90;;;;;;5052696;28;20056;-86
2022/03/04 00:24:19;;;;;;;20.60;11.07;;;1.40;99.90;;;;;;5018569;28;20106;-87
2022/03/04 00:26:46;;;;;;;18.60;10.57;;;1.40;99.90;;;;;;5034748;28;20366;-86
2022/03/04 00:29:11;;;;;;;18.07;10.00;;;1.40;99.90;;;;;;4998880;28;20276;-86
2022/03/04 00:31:38;;;;;;;19.83;10.27;;;1.30;99.90;;;;;;5017266;28;20294;-86
2022/03/04 00:34:07;;;;;;;18.43;9.23;;;1.30;99.90;;;;;;4993380;28;20032;-87
2022/03/04 00:36:35;;;;;;;21.37;10.50;;;1.20;99.90;;;;;;5034810;28;20309;-86
2022/03/04 00:39:03;;;;;;;20.53;10.27;;;1.10;99.90;;;;;;5018701;28;20378;-86
2022/03/04 00:41:28;;;;;;;21.17;10.57;;;1.10;99.90;;;;;;5015338;28;20791;-86
2022/03/04 00:43:54;;;;;;;23.93;10.67;;;1.10;99.90;;;;;;5018127;28;20282;-86
2022/03/04 00:46:20;;;;;;;21.93;11.37;;;1.10;99.90;;;;;;5018564;28;20051;-86
2022/03/04 00:48:45;;;;;;;20.40;11.10;;;1.00;99.90;;;;;;5018124;28;20477;-86
2022/03/04 00:51:13;;;;;;;24.03;11.73;;;1.00;99.90;;;;;;5017789;28;20040;-86
2022/03/04 00:53:40;;;;;;;26.00;11.37;;;1.00;99.90;;;;;;5052464;28;20045;-86
2022/03/04 00:56:07;;;;;;;21.07;10.70;;;1.00;99.90;;;;;;4999771;28;20287;-87
2022/03/04 00:58:34;;;;;;;24.83;11.03;;;1.00;99.90;;;;;;5034695;28;20425;-86
2022/03/04 01:01:00;;;;;;;21.63;11.00;;;1.00;99.90;;;;;;5018823;28;20283;-86
2022/03/04 01:03:26;;;;;;;25.93;11.80;;;0.90;99.90;;;;;;5001173;28;20643;-86
2022/03/04 01:05:52;;;;;;;23.50;11.40;;;0.90;99.90;;;;;;5034525;28;20171;-87
2022/03/04 01:08:18;;;;;;;26.90;12.23;;;0.80;99.90;;;;;;5001860;28;20052;-87
2022/03/04 01:10:44;;;;;;;21.90;11.43;;;0.90;99.90;;;;;;5018184;28;20628;-86
2022/03/04 01:13:10;;;;;;;23.90;11.57;;;0.80;99.90;;;;;;5022120;28;20275;-86
2022/03/04 01:15:36;;;;;;;23.07;11.47;;;0.80;99.90;;;;;;5003376;28;20294;-86
2022/03/04 01:18:03;;;;;;;21.73;12.60;;;0.70;99.90;;;;;;5035690;28;20041;-86
2022/03/04 01:20:30;;;;;;;22.43;11.63;;;0.70;99.90;;;;;;5035737;28;20323;-86
2022/03/04 01:22:57;;;;;;;20.90;11.20;;;0.70;99.90;;;;;;5030864;28;20323;-84
2022/03/04 01:25:23;;;;;;;21.47;11.50;;;0.70;99.90;;;;;;5031036;28;20295;-86
2022/03/04 01:27:49;;;;;;;24.10;12.20;;;0.60;99.90;;;;;;5002565;28;20281;-86
2022/03/04 01:30:15;;;;;;;22.67;10.70;;;0.60;99.90;;;;;;5016974;28;20036;-86
2022/03/04 01:32:40;;;;;;;23.87;11.20;;;0.60;99.90;;;;;;5021696;28;20713;-86
2022/03/04 01:35:08;;;;;;;22.50;11.23;;;0.60;99.90;;;;;;5021860;28;20041;-87
2022/03/04 01:37:34;;;;;;;21.80;11.00;;;0.60;99.90;;;;;;4996242;28;20048;-86
2022/03/04 01:40:01;;;;;;;21.90;11.23;;;0.60;99.90;;;;;;5030372;28;20310;-86
2022/03/04 01:42:26;;;;;;;27.97;12.70;;;0.60;99.90;;;;;;5037858;28;20291;-87
2022/03/04 01:44:52;;;;;;;22.57;11.43;;;0.50;99.90;;;;;;4994496;28;21832;-86
2022/03/04 01:47:18;;;;;;;25.20;11.87;;;0.60;99.90;;;;;;5005745;28;20358;-86
2022/03/04 01:49:44;;;;;;;24.43;12.23;;;0.50;99.90;;;;;;5005259;28;20033;-86
2022/03/04 01:52:10;;;;;;;23.40;11.87;;;0.50;99.90;;;;;;5020982;28;20167;-86
2022/03/04 01:54:36;;;;;;;26.20;12.10;;;0.50;99.90;;;;;;5020963;28;20330;-86
2022/03/04 01:57:02;;;;;;;24.23;11.53;;;0.50;99.90;;;;;;5037437;28;20045;-86
2022/03/04 01:59:28;;;;;;;26.17;12.37;;;0.50;99.90;;;;;;5021301;28;20381;-86
2022/03/04 02:01:54;;;;;;;28.47;13.03;;;0.50;99.90;;;;;;5005307;28;20313;-86
2022/03/04 02:04:25;;;;;;;24.03;12.17;;;0.50;99.90;;;;;;5037835;28;20047;-87
2022/03/04 02:06:51;;;;;;;24.50;12.20;;;0.40;99.90;;;;;;5012819;28;20283;-86
2022/03/04 02:09:17;;;;;;;24.47;11.70;;;0.30;99.90;;;;;;5037752;28;20294;-86
2022/03/04 02:11:44;;;;;;;27.63;12.90;;;0.30;99.90;;;;;;5037857;28;20682;-86
2022/03/04 02:14:13;;;;;;;24.70;11.90;;;0.30;99.90;;;;;;5021246;28;20279;-86
2022/03/04 02:16:53;;;;;;;27.57;13.13;;;0.30;99.90;;;;;;5037296;28;20337;-86
2022/03/04 02:19:20;;;;;;;25.97;12.03;;;0.20;99.90;;;;;;5020442;28;20283;-85
2022/03/04 02:21:58;;;;;;;29.50;12.80;;;0.20;99.90;;;;;;5016906;28;20292;-86
2022/03/04 02:24:26;;;;;;;25.23;13.03;;;0.30;99.90;;;;;;5014982;28;20323;-86
2022/03/04 02:26:53;;;;;;;33.43;14.00;;;0.20;99.90;;;;;;5017645;28;20356;-86
2022/03/04 02:29:19;;;;;;;27.37;13.57;;;0.20;99.90;;;;;;5024590;28;20789;-86
2022/03/04 02:31:45;;;;;;;26.90;13.03;;;0.10;99.90;;;;;;5014758;28;20284;-86
2022/03/04 02:34:12;;;;;;;31.97;14.27;;;0.10;99.90;;;;;;5012284;28;20363;-86
2022/03/04 02:36:38;;;;;;;30.33;14.53;;;0.10;99.90;;;;;;4996356;28;20029;-86
2022/03/04 02:39:06;;;;;;;30.27;13.90;;;0.10;99.90;;;;;;5020573;28;20330;-86
2022/03/04 02:41:35;;;;;;;30.50;14.30;;;0.10;99.90;;;;;;5020630;28;20287;-86
2022/03/04 02:44:02;;;;;;;29.67;14.40;;;0.00;99.90;;;;;;5003993;28;20290;-86
2022/03/04 02:46:28;;;;;;;31.83;14.30;;;0.10;99.90;;;;;;5007754;28;20287;-86
2022/03/04 02:48:54;;;;;;;30.60;14.67;;;0.00;99.90;;;;;;5033590;28;20276;-86
2022/03/04 02:51:19;;;;;;;29.77;14.53;;;0.00;99.90;;;;;;5020895;28;20040;-86
2022/03/04 02:53:46;;;;;;;35.40;15.47;;;0.00;99.90;;;;;;5019842;28;20718;-86
2022/03/04 02:56:12;;;;;;;32.17;14.33;;;-0.10;99.90;;;;;;5020014;28;20051;-86
2022/03/04 02:58:38;;;;;;;29.43;14.07;;;-0.10;99.90;;;;;;5020093;28;20275;-85
2022/03/04 03:01:03;;;;;;;32.57;14.93;;;0.00;99.90;;;;;;5034845;28;20067;-85
2022/03/04 03:03:29;;;;;;;32.90;14.87;;;-0.10;99.90;;;;;;5019830;28;20044;-85
2022/03/04 03:05:55;;;;;;;30.93;14.03;;;-0.10;99.90;;;;;;5001508;28;20033;-85
2022/03/04 03:08:20;;;;;;;39.00;16.33;;;-0.10;99.90;;;;;;5020059;28;20045;-85
2022/03/04 03:10:46;;;;;;;33.60;14.87;;;-0.10;99.90;;;;;;5019944;28;20037;-85
2022/03/04 03:13:12;;;;;;;34.17;16.13;;;0.00;99.90;;;;;;4997700;28;20160;-86
2022/03/04 03:15:38;;;;;;;36.77;16.03;;;0.00;99.90;;;;;;5002676;28;20310;-85
2022/03/04 03:18:04;;;;;;;36.37;15.77;;;0.00;99.90;;;;;;5011559;28;20685;-85
2022/03/04 03:20:30;;;;;;;34.07;15.90;;;0.00;99.90;;;;;;5050240;28;20440;-86
2022/03/04 03:22:56;;;;;;;35.77;16.73;;;0.00;99.90;;;;;;5053008;28;20310;-86
2022/03/04 03:25:21;;;;;;;36.87;17.03;;;0.00;99.90;;;;;;5019182;28;20037;-85
2022/03/04 03:27:47;;;;;;;39.17;16.43;;;0.00;99.90;;;;;;5032367;28;20033;-85
2022/03/04 03:30:13;;;;;;;36.47;15.37;;;0.00;99.90;;;;;;5016433;28;20037;-85
2022/03/04 03:32:39;;;;;;;35.17;16.23;;;0.00;99.90;;;;;;5035673;28;20071;-85
2022/03/04 03:35:08;;;;;;;39.00;17.37;;;0.00;99.90;;;;;;5035182;28;20344;-85
2022/03/04 03:37:34;;;;;;;37.40;16.73;;;0.00;99.90;;;;;;5019402;28;20310;-85
2022/03/04 03:40:00;;;;;;;39.87;16.93;;;0.00;99.90;;;;;;5003044;28;20310;-85
2022/03/04 03:42:26;;;;;;;35.30;16.67;;;-0.10;99.90;;;;;;5018921;28;20287;-86
2022/03/04 03:44:52;;;;;;;34.23;16.70;;;-0.10;99.90;;;;;;5018980;28;20299;-85
2022/03/04 03:47:17;;;;;;;38.07;17.77;;;-0.10;99.90;;;;;;5019042;28;20043;-85
2022/03/04 03:49:43;;;;;;;38.20;15.87;;;-0.10;99.90;;;;;;5035481;28;20127;-86
2022/03/04 03:52:09;;;;;;;40.50;18.60;;;-0.10;99.90;;;;;;5035076;28;20033;-86
2022/03/04 03:54:35;;;;;;;38.07;17.57;;;-0.10;99.90;;;;;;5036103;28;20039;-85
2022/03/04 03:57:01;;;;;;;46.03;19.00;;;-0.10;99.90;;;;;;5004080;28;20094;-83
2022/03/04 03:59:27;;;;;;;42.27;18.10;;;-0.10;99.90;;;;;;5044280;28;20467;-83
2022/03/04 04:01:52;;;;;;;42.77;19.20;;;0.00;99.90;;;;;;5040791;28;20315;-86
2022/03/04 04:04:18;;;;;;;45.27;18.27;;;0.00;99.90;;;;;;5018721;28;20454;-86
2022/03/04 04:06:44;;;;;;;43.67;18.70;;;0.00;99.90;;;;;;5035563;28;20052;-86
2022/03/04 04:09:10;;;;;;;42.03;18.73;;;0.00;99.90;;;;;;5002650;28;20036;-86
2022/03/04 04:11:38;;;;;;;45.57;20.40;;;0.10;99.90;;;;;;5035169;28;20284;-85
2022/03/04 04:14:08;;;;;;;41.13;19.73;;;0.00;99.90;;;;;;5035390;28;20418;-86
2022/03/04 04:16:35;;;;;;;44.37;19.43;;;0.00;99.90;;;;;;5002508;28;20275;-85
2022/03/04 04:19:01;;;;;;;41.40;18.87;;;0.00;99.90;;;;;;5031733;28;20280;-86
2022/03/04 04:21:27;;;;;;;46.60;20.03;;;0.00;99.90;;;;;;5019713;28;20370;-85
2022/03/04 04:23:54;;;;;;;50.13;21.03;;;0.00;99.90;;;;;;5034775;28;20283;-87
2022/03/04 04:26:21;;;;;;;44.43;19.67;;;0.00;99.90;;;;;;5019704;28;20303;-86
2022/03/04 04:28:47;;;;;;;45.57;19.87;;;0.00;99.90;;;;;;5019469;28;20330;-86
2022/03/04 04:31:14;;;;;;;47.37;20.30;;;0.00;99.90;;;;;;5035153;28;20271;-86
2022/03/04 04:33:40;;;;;;;46.27;20.07;;;0.00;99.90;;;;;;5018868;28;20313;-86
2022/03/04 04:36:06;;;;;;;43.90;19.37;;;0.00;99.90;;;;;;5030162;28;20311;-86
2022/03/04 04:38:32;;;;;;;42.40;19.30;;;0.00;99.90;;;;;;5033635;28;20501;-85
2022/03/04 04:40:58;;;;;;;40.53;19.83;;;0.00;99.90;;;;;;5018567;28;20366;-83
2022/03/04 04:43:24;;;;;;;47.60;20.33;;;-0.10;99.90;;;;;;5035289;28;20283;-85
2022/03/04 04:45:51;;;;;;;47.10;19.80;;;-0.10;99.90;;;;;;5017741;28;20808;-86
2022/03/04 04:48:17;;;;;;;46.30;19.93;;;-0.10;99.90;;;;;;5018264;28;20037;-86
2022/03/04 04:50:43;;;;;;;43.07;19.33;;;-0.10;99.90;;;;;;5018330;28;20287;-84
2022/03/04 04:53:08;;;;;;;43.97;19.30;;;-0.10;99.90;;;;;;5018089;28;20036;-86
2022/03/04 04:55:34;;;;;;;42.73;19.57;;;-0.10;99.90;;;;;;5017828;28;20298;-86
2022/03/04 04:58:00;;;;;;;43.37;18.70;;;-0.10;99.90;;;;;;5014054;28;20055;-86
2022/03/04 05:00:26;;;;;;;48.57;19.97;;;-0.10;99.90;;;;;;5001458;28;20484;-86
2022/03/04 05:02:52;;;;;;;41.40;19.33;;;-0.10;99.90;;;;;;5018104;28;20119;-87
2022/03/04 05:05:18;;;;;;;48.53;20.13;;;0.00;99.90;;;;;;5017899;28;20430;-87
2022/03/04 05:07:44;;;;;;;41.40;17.27;;;0.00;99.90;;;;;;5033991;28;20037;-86
2022/03/04 05:10:10;;;;;;;45.70;19.17;;;0.00;99.90;;;;;;5018105;28;20286;-86
2022/03/04 05:12:36;;;;;;;41.90;18.00;;;-0.10;99.90;;;;;;5018872;28;20040;-85
2022/03/04 05:15:01;;;;;;;40.00;18.30;;;-0.10;99.90;;;;;;5018264;28;20476;-86
2022/03/04 05:17:27;;;;;;;42.70;17.87;;;-0.10;99.90;;;;;;5001554;28;20045;-86
2022/03/04 05:19:53;;;;;;;40.20;16.90;;;-0.20;99.90;;;;;;5012516;28;20041;-85
2022/03/04 05:22:18;;;;;;;43.57;18.90;;;-0.20;99.90;;;;;;5001580;28;20056;-86
2022/03/04 05:24:44;;;;;;;40.73;18.13;;;-0.20;99.90;;;;;;5017946;28;20049;-86
2022/03/04 05:27:10;;;;;;;41.47;18.53;;;-0.20;99.90;;;;;;5033809;28;20079;-87
2022/03/04 05:29:36;;;;;;;39.47;18.20;;;-0.20;99.90;;;;;;4982491;28;20033;-86
2022/03/04 05:32:02;;;;;;;40.90;18.20;;;-0.20;99.90;;;;;;4979477;28;20127;-86
2022/03/04 05:34:27;;;;;;;40.27;18.67;;;-0.20;99.90;;;;;;5001638;28;20040;-86
2022/03/04 05:36:53;;;;;;;41.90;18.80;;;-0.20;99.90;;;;;;5018241;28;20279;-85
2022/03/04 05:39:23;;;;;;;42.33;18.47;;;-0.10;99.90;;;;;;5035759;28;20041;-86
2022/03/04 05:41:48;;;;;;;37.93;18.37;;;-0.20;99.90;;;;;;5002203;28;20289;-86
2022/03/04 05:44:14;;;;;;;38.70;18.20;;;-0.20;99.90;;;;;;4995437;28;20337;-86
2022/03/04 05:46:40;;;;;;;40.40;17.57;;;-0.10;99.90;;;;;;5031767;28;20442;-86
2022/03/04 05:49:06;;;;;;;39.97;18.03;;;-0.20;99.90;;;;;;5004029;28;20036;-86
2022/03/04 05:51:33;;;;;;;41.57;18.47;;;-0.10;99.90;;;;;;5021339;28;20128;-86
2022/03/04 05:53:59;;;;;;;43.17;19.17;;;-0.10;99.90;;;;;;5019185;28;20283;-86
2022/03/04 05:56:25;;;;;;;42.37;19.37;;;-0.20;99.90;;;;;;5016540;28;20283;-85
2022/03/04 05:58:51;;;;;;;48.20;18.93;;;-0.20;99.90;;;;;;5022152;28;20675;-86
2022/03/04 06:01:16;;;;;;;39.63;18.57;;;-0.10;99.90;;;;;;5005565;28;20037;-86
2022/03/04 06:03:43;;;;;;;40.87;17.50;;;-0.10;99.90;;;;;;5021773;28;20287;-86
2022/03/04 06:06:13;;;;;;;44.53;18.87;;;-0.10;99.90;;;;;;5021479;28;20068;-77
2022/03/04 06:08:39;;;;;;;44.20;19.17;;;-0.20;99.90;;;;;;5014383;28;20821;-77
2022/03/04 06:11:08;;;;;;;48.90;19.47;;;-0.20;99.90;;;;;;5016389;28;20276;-77
2022/03/04 06:13:35;;;;;;;44.33;19.07;;;-0.20;99.90;;;;;;5033454;28;20120;-78
2022/03/04 06:16:01;;;;;;;40.57;17.30;;;-0.20;99.90;;;;;;5016062;28;20326;-78
2022/03/04 06:18:27;;;;;;;40.80;18.60;;;-0.20;99.90;;;;;;5000536;28;20290;-78
2022/03/04 06:20:53;;;;;;;42.33;18.17;;;-0.20;99.90;;;;;;4998522;28;20666;-78
2022/03/04 06:23:19;;;;;;;40.43;18.60;;;-0.20;99.90;;;;;;5031589;28;20037;-77
2022/03/04 06:25:44;;;;;;;41.40;18.83;;;-0.20;99.90;;;;;;4998159;28;20045;-77
2022/03/04 06:28:10;;;;;;;41.97;19.30;;;-0.20;99.90;;;;;;4999447;28;20036;-78
2022/03/04 06:30:36;;;;;;;47.27;19.27;;;-0.20;99.90;;;;;;5001036;28;20039;-77
2022/03/04 06:35:48;;;;;;;46.43;20.07;;;-0.20;99.90;;;;;;5017566;28;20289;-76
2022/03/04 06:38:14;;;;;;;48.97;19.93;;;-0.20;99.90;;;;;;5031175;28;20296;-76
2022/03/04 06:40:40;;;;;;;40.03;19.33;;;-0.10;99.90;;;;;;5032169;28;20053;-76
2022/03/04 06:43:06;;;;;;;45.07;19.33;;;-0.20;99.90;;;;;;5015120;28;20120;-77
2022/03/04 06:45:33;;;;;;;41.83;19.23;;;-0.20;99.90;;;;;;5031095;28;20314;-76
2022/03/04 06:47:59;;;;;;;39.60;18.83;;;-0.20;99.90;;;;;;5031576;28;20322;-76
2022/03/04 06:50:24;;;;;;;44.33;18.30;;;-0.30;99.90;;;;;;5029710;28;20284;-76
2022/03/04 06:52:54;;;;;;;40.37;17.60;;;-0.30;99.90;;;;;;5031756;28;20337;-77
2022/03/04 06:55:20;;;;;;;42.17;19.47;;;-0.20;99.90;;;;;;5047006;28;20059;-77
2022/03/04 06:57:54;;;;;;;40.73;19.93;;;-0.30;99.90;;;;;;5015009;28;20287;-77
2022/03/04 07:00:20;;;;;;;45.80;19.83;;;-0.20;99.90;;;;;;5013252;28;20044;-77
2022/03/04 07:02:46;;;;;;;44.50;20.67;;;-0.20;99.90;;;;;;5021857;28;20291;-77
2022/03/04 07:05:12;;;;;;;42.77;18.53;;;-0.30;99.90;;;;;;4994577;28;20375;-77
2022/03/04 07:07:38;;;;;;;43.80;19.20;;;-0.20;99.90;;;;;;5015127;28;20651;-78
2022/03/04 07:10:05;;;;;;;47.67;20.00;;;-0.10;99.90;;;;;;5031495;28;20286;-77
2022/03/04 07:12:30;;;;;;;46.80;20.97;;;-0.20;99.90;;;;;;5014809;28;20563;-77
2022/03/04 07:14:56;;;;;;;42.07;19.27;;;-0.10;99.90;;;;;;5032165;28;20292;-77
2022/03/04 07:17:22;;;;;;;48.43;20.57;;;-0.10;99.90;;;;;;5002486;28;20036;-77
2022/03/04 07:19:48;;;;;;;41.37;19.03;;;-0.10;99.90;;;;;;5015264;28;20044;-77
2022/03/04 07:22:14;;;;;;;43.20;17.70;;;0.00;99.90;;;;;;5030419;28;20049;-77
2022/03/04 07:24:40;;;;;;;44.97;20.20;;;0.00;99.90;;;;;;4997262;28;20045;-77
2022/03/04 07:27:05;;;;;;;39.93;17.80;;;0.00;99.90;;;;;;5031486;28;20283;-77
2022/03/04 07:29:31;;;;;;;38.03;18.23;;;0.00;99.90;;;;;;5029175;28;20050;-77
2022/03/04 07:31:57;;;;;;;38.23;17.10;;;0.10;99.90;;;;;;5023011;28;20038;-77
2022/03/04 07:34:24;;;;;;;45.23;19.33;;;0.20;99.90;;;;;;5029555;28;20072;-77
2022/03/04 07:36:51;;;;;;;41.73;18.07;;;0.20;99.90;;;;;;5027422;28;20029;-77
2022/03/04 07:39:17;;;;;;;40.90;18.93;;;0.20;99.90;;;;;;5012466;28;20294;-77
2022/03/04 07:41:42;;;;;;;39.97;17.73;;;0.20;99.90;;;;;;5013967;28;20283;-77
2022/03/04 07:44:10;;;;;;;42.73;18.50;;;0.30;99.90;;;;;;5030933;28;20436;-77
2022/03/04 07:46:36;;;;;;;36.40;16.43;;;0.30;99.90;;;;;;5021041;28;20139;-77
2022/03/04 07:49:03;;;;;;;41.17;19.07;;;0.20;99.90;;;;;;5004222;28;20290;-77
2022/03/04 07:51:29;;;;;;;39.83;17.87;;;0.30;99.90;;;;;;5029409;28;20291;-77
2022/03/04 07:53:55;;;;;;;42.80;19.93;;;0.20;99.90;;;;;;5031324;28;20287;-77
2022/03/04 07:56:21;;;;;;;37.90;17.60;;;0.20;99.90;;;;;;5013644;28;20450;-77
2022/03/04 07:58:47;;;;;;;39.87;18.07;;;0.30;99.90;;;;;;4998472;28;20413;-76
2022/03/04 08:01:13;;;;;;;43.63;18.80;;;0.30;99.90;;;;;;5013945;28;20279;-77
2022/03/04 08:03:38;;;;;;;41.07;19.00;;;0.20;99.90;;;;;;5014184;28;20040;-77
2022/03/04 08:06:04;;;;;;;43.40;18.97;;;0.30;99.90;;;;;;5011115;28;20076;-77
2022/03/04 08:08:30;;;;;;;42.07;19.70;;;0.30;99.90;;;;;;4996601;28;20045;-76
2022/03/04 08:10:56;;;;;;;39.43;17.40;;;0.30;99.90;;;;;;5013114;28;20036;-77
2022/03/04 08:13:22;;;;;;;41.93;18.70;;;0.30;99.90;;;;;;5013141;28;20037;-77
2022/03/04 08:15:47;;;;;;;40.23;18.00;;;0.30;99.90;;;;;;5030345;28;20283;-77
2022/03/04 08:18:13;;;;;;;42.90;19.23;;;0.40;99.90;;;;;;4997887;28;20492;-77
2022/03/04 08:20:40;;;;;;;42.90;18.97;;;0.40;99.90;;;;;;5030415;28;20041;-77
2022/03/04 08:23:06;;;;;;;46.73;19.37;;;0.40;99.90;;;;;;5029930;28;20037;-77
2022/03/04 08:25:32;;;;;;;39.53;18.03;;;0.50;99.90;;;;;;5012815;28;20310;-77
2022/03/04 08:27:57;;;;;;;43.37;19.00;;;0.60;99.90;;;;;;5029487;28;21081;-77
2022/03/04 08:30:23;;;;;;;40.00;18.43;;;0.70;99.90;;;;;;5027855;28;20037;-77
2022/03/04 08:32:49;;;;;;;43.73;18.57;;;0.70;99.90;;;;;;5029552;28;20115;-77
2022/03/04 08:35:15;;;;;;;39.07;18.17;;;0.70;99.90;;;;;;5013816;28;20370;-77
2022/03/04 08:37:41;;;;;;;44.47;18.50;;;0.80;99.90;;;;;;5029365;28;20484;-77
2022/03/04 08:40:08;;;;;;;41.17;18.77;;;0.90;99.90;;;;;;5027867;28;20044;-77
2022/03/04 08:42:35;;;;;;;40.23;18.57;;;1.00;99.90;;;;;;5029314;28;20049;-77
2022/03/04 08:45:01;;;;;;;36.10;17.37;;;1.00;99.90;;;;;;5012505;28;20307;-77
2022/03/04 08:47:27;;;;;;;42.30;18.27;;;1.00;99.90;;;;;;5013039;28;20413;-77
2022/03/04 08:49:53;;;;;;;38.77;18.47;;;1.00;99.90;;;;;;5030042;28;20496;-76
2022/03/04 08:52:18;;;;;;;35.87;17.27;;;1.00;99.90;;;;;;4996776;28;20041;-77
2022/03/04 08:54:44;;;;;;;37.40;16.77;;;1.00;99.90;;;;;;5013085;28;20496;-77
2022/03/04 08:57:10;;;;;;;37.50;17.00;;;1.00;99.90;;;;;;5029727;28;20434;-77
2022/03/04 08:59:36;;;;;;;38.40;17.77;;;1.10;99.90;;;;;;5014077;28;20037;-77
2022/03/04 09:02:02;;;;;;;40.60;17.23;;;1.10;99.90;;;;;;5013415;28;20036;-77
2022/03/04 09:04:28;;;;;;;37.13;17.03;;;1.10;99.90;;;;;;5030201;28;20370;-78
2022/03/04 09:06:54;;;;;;;35.27;17.00;;;1.10;99.90;;;;;;4998252;28;20675;-77
2022/03/04 09:09:20;;;;;;;40.97;18.10;;;1.20;99.90;;;;;;5031104;28;20115;-77
2022/03/04 09:11:46;;;;;;;40.57;19.37;;;1.20;99.90;;;;;;5025162;28;20052;-77
2022/03/04 09:14:11;;;;;;;34.67;17.07;;;1.30;99.90;;;;;;4996760;28;20412;-78
2022/03/04 09:16:38;;;;;;;30.73;16.17;;;1.40;99.90;;;;;;5013333;28;20056;-77
2022/03/04 09:19:04;;;;;;;34.13;16.00;;;1.40;99.90;;;;;;5029960;28;20048;-78
2022/03/04 09:21:29;;;;;;;32.27;15.53;;;1.50;99.90;;;;;;5010755;28;20379;-78
2022/03/04 09:23:55;;;;;;;34.97;15.63;;;1.60;99.90;;;;;;4992127;28;20366;-79
2022/03/04 09:26:21;;;;;;;31.37;15.87;;;1.60;99.90;;;;;;5013693;28;20576;-78
2022/03/04 09:28:47;;;;;;;32.90;15.43;;;1.70;99.90;;;;;;5029919;28;20041;-78
2022/03/04 09:31:13;;;;;;;31.47;15.57;;;1.70;99.90;;;;;;5013026;28;20068;-78
2022/03/04 09:33:39;;;;;;;37.40;16.73;;;1.80;99.90;;;;;;5000145;28;20071;-79
2022/03/04 09:36:07;;;;;;;34.63;15.63;;;1.90;99.90;;;;;;5033562;28;20315;-78
2022/03/04 09:38:33;;;;;;;30.93;15.77;;;1.90;99.90;;;;;;5031094;28;20037;-78
2022/03/04 09:40:59;;;;;;;35.73;16.47;;;2.10;99.90;;;;;;5008564;28;20294;-78
2022/03/04 09:43:25;;;;;;;35.27;16.97;;;2.10;99.90;;;;;;5031525;28;20044;-78
2022/03/04 09:45:51;;;;;;;28.70;14.93;;;2.30;99.90;;;;;;5016619;28;20045;-78
2022/03/04 09:48:17;;;;;;;31.90;16.13;;;2.40;99.90;;;;;;5016802;28;20057;-78
2022/03/04 09:50:48;;;;;;;30.13;15.23;;;2.30;99.90;;;;;;5018639;28;20279;-87
2022/03/04 09:53:15;;;;;;;28.93;14.70;;;2.20;99.90;;;;;;5036636;28;20612;-87
2022/03/04 09:55:42;;;;;;;31.57;15.33;;;2.30;99.90;;;;;;5018519;28;20300;-86
2022/03/04 09:58:16;;;;;;;32.33;15.17;;;2.30;99.90;;;;;;5036303;28;20288;-86
2022/03/04 10:00:43;;;;;;;33.77;14.77;;;2.40;99.90;;;;;;5020121;28;20741;-86
2022/03/04 10:03:40;;;;;;;35.93;16.37;;;2.60;99.90;;;;;;5016900;28;20283;-86
2022/03/04 10:06:06;;;;;;;28.30;13.67;;;2.70;99.90;;;;;;5022434;28;20402;-86
2022/03/04 10:08:43;;;;;;;32.03;15.80;;;2.90;99.90;;;;;;5019485;28;20374;-87
2022/03/04 10:11:09;;;;;;;33.87;15.53;;;3.00;99.90;;;;;;5035675;28;20040;-86
2022/03/04 10:13:49;;;;;;;30.83;15.97;;;3.10;99.90;;;;;;5018859;28;20290;-87
2022/03/04 10:16:44;;;;;;;30.97;15.80;;;3.20;99.90;;;;;;5035306;28;20287;-87
2022/03/04 10:19:15;;;;;;;27.53;15.17;;;3.20;99.90;;;;;;5005637;28;20292;-86
2022/03/04 10:21:57;;;;;;;29.43;14.57;;;3.40;99.90;;;;;;5032304;28;20053;-87
2022/03/04 10:24:29;;;;;;;28.30;14.18;;;3.40;99.90;;;;;;5033839;28;20044;-87
2022/03/04 10:27:03;;;;;;;28.77;14.35;;;3.50;99.90;;;;;;5035837;28;20037;-88
2022/03/04 10:29:31;;;;;;;27.03;13.90;;;3.60;99.90;;;;;;5032878;28;20037;-87
2022/03/04 10:32:06;;;;;;;29.10;13.67;;;3.70;99.90;;;;;;5017736;28;20048;-86
2022/03/04 10:34:44;;;;;;;29.47;15.20;;;3.80;99.90;;;;;;5029170;28;20044;-86
2022/03/04 10:37:11;;;;;;;30.53;15.13;;;3.90;99.90;;;;;;5034319;28;20033;-87
2022/03/04 10:39:48;;;;;;;31.03;14.47;;;4.00;99.90;;;;;;5030327;28;20080;-87
2022/03/04 10:42:16;;;;;;;28.80;14.27;;;4.10;99.90;;;;;;5032501;28;20117;-88
2022/03/04 10:44:41;;;;;;;30.73;15.50;;;4.20;99.90;;;;;;5017629;28;20715;-86
2022/03/04 10:47:07;;;;;;;28.70;14.17;;;4.40;99.90;;;;;;5018906;28;20036;-87
2022/03/04 10:49:33;;;;;;;29.97;14.20;;;4.50;99.90;;;;;;5018542;28;20088;-86
2022/03/04 10:52:06;;;;;;;28.90;14.07;;;4.50;99.90;;;;;;5035457;28;20055;-87
2022/03/04 10:54:32;;;;;;;28.17;13.53;;;4.60;99.90;;;;;;5005564;28;20049;-88
2022/03/04 10:57:02;;;;;;;27.03;13.53;;;4.60;99.90;;;;;;4993478;28;21270;-87
2022/03/04 10:59:28;;;;;;;27.23;13.20;;;4.70;99.90;;;;;;5035648;28;20369;-87
2022/03/04 11:01:55;;;;;;;28.10;13.33;;;4.70;99.90;;;;;;5035090;28;20040;-87
2022/03/04 11:04:22;;;;;;;25.70;13.87;;;4.80;99.90;;;;;;5014048;28;20029;-87
2022/03/04 11:06:49;;;;;;;28.00;14.33;;;4.80;99.90;;;;;;5010273;28;20128;-88
2022/03/04 11:09:16;;;;;;;26.07;13.37;;;4.90;99.90;;;;;;5032268;28;20030;-88
2022/03/04 11:11:43;;;;;;;27.60;13.63;;;5.10;99.90;;;;;;5035730;28;20067;-86
2022/03/04 11:14:13;;;;;;;27.70;13.87;;;5.10;99.90;;;;;;5002796;28;20028;-87
2022/03/04 11:16:39;;;;;;;24.57;14.20;;;5.20;99.90;;;;;;5035457;28;20045;-86
2022/03/04 11:19:06;;;;;;;26.30;13.93;;;5.20;99.90;;;;;;5033756;28;20037;-87
2022/03/04 11:21:32;;;;;;;28.43;14.07;;;5.30;99.90;;;;;;5033960;28;20065;-88
2022/03/04 11:23:58;;;;;;;25.03;12.40;;;5.40;99.90;;;;;;5035674;28;20037;-87
2022/03/04 11:26:31;;;;;;;29.00;15.00;;;5.50;99.90;;;;;;5034939;28;20516;-87
2022/03/04 11:28:59;;;;;;;27.70;13.70;;;5.60;99.90;;;;;;5017945;28;20037;-87
2022/03/04 11:31:26;;;;;;;25.67;13.57;;;5.70;99.90;;;;;;5013095;28;20044;-87
2022/03/04 11:33:54;;;;;;;29.00;14.47;;;5.70;99.90;;;;;;5026100;28;20049;-88
2022/03/04 11:36:39;;;;;;;23.57;13.27;;;5.90;99.90;;;;;;5016009;28;20488;-87
2022/03/04 11:39:12;;;;;;;25.53;13.27;;;6.00;99.90;;;;;;5031972;28;20131;-88
2022/03/04 11:41:39;;;;;;;27.83;13.70;;;6.10;99.90;;;;;;5017926;28;20040;-88
2022/03/04 11:44:12;;;;;;;25.07;13.23;;;6.20;99.90;;;;;;5017813;28;20045;-87
2022/03/04 11:47:00;;;;;;;24.80;12.87;;;6.20;99.90;;;;;;5031195;28;20651;-87
2022/03/04 11:49:47;;;;;;;28.83;14.13;;;6.30;99.90;;;;;;5012673;28;20044;-87
2022/03/04 11:52:24;;;;;;;25.90;12.90;;;6.40;99.90;;;;;;5016030;28;20040;-87
2022/03/04 11:54:49;;;;;;;25.20;13.50;;;6.50;99.90;;;;;;5034250;28;20060;-87
2022/03/04 11:57:26;;;;;;;24.13;12.17;;;6.50;99.90;;;;;;5037611;28;20496;-84
2022/03/04 12:00:19;;;;;;;25.47;12.67;;;6.60;99.90;;;;;;5020880;28;20041;-87
2022/03/04 12:02:47;;;;;;;21.67;11.53;;;6.70;99.90;;;;;;5017631;28;20385;-87
2022/03/04 12:05:13;;;;;;;23.73;11.87;;;6.90;99.90;;;;;;5034393;28;20045;-87
2022/03/04 12:07:41;;;;;;;18.03;10.67;;;7.00;99.90;;;;;;5017577;28;20571;-87
2022/03/04 12:10:15;;;;;;;24.13;11.23;;;7.00;99.90;;;;;;5008134;28;20041;-88
2022/03/04 12:13:02;;;;;;;19.23;10.33;;;7.10;99.90;;;;;;5000852;28;20045;-87
2022/03/04 12:15:48;;;;;;;21.20;11.27;;;7.20;99.90;;;;;;5015169;28;20049;-87
2022/03/04 12:18:25;;;;;;;18.00;9.70;;;7.20;99.90;;;;;;5033945;28;20365;-89
2022/03/04 12:20:59;;;;;;;18.73;9.90;;;7.30;99.90;;;;;;5019484;28;20045;-88
2022/03/04 12:23:36;;;;;;;15.87;8.93;;;7.40;99.90;;;;;;5032909;28;20045;-87
2022/03/04 12:26:02;;;;;;;20.40;10.80;;;7.40;99.90;;;;;;5013978;28;20049;-87
2022/03/04 12:28:49;;;;;;;17.43;9.80;;;7.50;99.90;;;;;;5018727;28;20044;-87
2022/03/04 12:31:19;;;;;;;16.07;9.43;;;7.50;99.90;;;;;;5042893;28;20041;-87
2022/03/04 12:33:54;;;;;;;16.63;9.33;;;7.60;99.90;;;;;;5033193;28;20170;-88
2022/03/04 12:36:21;;;;;;;16.37;9.70;;;7.60;99.90;;;;;;5033955;28;20040;-89
2022/03/04 12:38:53;;;;;;;14.53;8.77;;;7.70;99.90;;;;;;5014809;28;20809;-88
2022/03/04 12:41:24;;;;;;;17.05;8.82;;;7.70;99.90;;;;;;5003848;28;20174;-88